createdAt,value
2023-02-09T00:03:42.030Z,39.40
2023-02-09T00:07:42.332Z,38.90
2023-02-09T00:11:57.993Z,43.07
2023-02-09T00:16:02.043Z,37.90
2023-02-09T00:20:02.294Z,39.97
2023-02-09T00:24:03.058Z,40.20
2023-02-09T00:28:05.943Z,35.93
2023-02-09T00:32:06.251Z,41.43
2023-02-09T00:36:09.234Z,34.93
2023-02-09T00:40:10.847Z,33.50
2023-02-09T00:44:14.727Z,35.33
2023-02-09T00:48:14.809Z,32.37
2023-02-09T00:52:14.854Z,37.33
2023-02-09T00:56:14.961Z,32.30
2023-02-09T01:00:20.568Z,30.90
2023-02-09T01:04:20.808Z,32.97
2023-02-09T01:08:20.884Z,31.87
2023-02-09T01:12:20.964Z,30.30
2023-02-09T01:16:24.158Z,33.47
2023-02-09T01:20:24.371Z,32.23
2023-02-09T01:24:24.578Z,31.37
2023-02-09T01:28:24.702Z,34.37
2023-02-09T01:32:27.602Z,35.13
2023-02-09T01:36:29.188Z,33.47
2023-02-09T01:40:29.265Z,34.60
2023-02-09T01:45:20.904Z,35.30
2023-02-09T01:49:29.062Z,37.27
2023-02-09T01:53:30.997Z,30.93
2023-02-09T01:57:35.578Z,29.70
2023-02-09T02:01:35.879Z,34.57
2023-02-09T02:05:45.337Z,35.30
2023-02-09T02:09:46.029Z,33.97
2023-02-09T02:13:46.311Z,28.53
2023-02-09T02:18:10.897Z,32.53
2023-02-09T02:22:54.200Z,30.03
2023-02-09T02:27:02.217Z,31.53
2023-02-09T02:31:44.914Z,31.67
2023-02-09T02:35:56.925Z,26.57
2023-02-09T02:40:18.736Z,27.53
2023-02-09T02:44:22.211Z,31.77
2023-02-09T02:48:35.289Z,26.33
2023-02-09T02:52:38.297Z,28.67
2023-02-09T02:56:44.983Z,26.80
2023-02-09T03:00:52.925Z,29.93
2023-02-09T03:04:58.305Z,31.33
2023-02-09T03:09:01.660Z,29.90
2023-02-09T03:13:17.862Z,28.47
2023-02-09T03:17:32.969Z,26.37
2023-02-09T03:21:49.258Z,27.17
2023-02-09T03:25:59.083Z,29.90
2023-02-09T03:30:04.454Z,36.33
2023-02-09T03:34:05.264Z,31.57
2023-02-09T03:38:07.785Z,37.87
2023-02-09T03:42:10.693Z,36.53
2023-02-09T03:46:10.776Z,31.37
2023-02-09T03:50:11.836Z,35.07
2023-02-09T03:54:11.866Z,36.60
2023-02-09T03:58:14.534Z,31.67
2023-02-09T04:02:15.959Z,31.20
2023-02-09T04:06:16.026Z,31.07
2023-02-09T04:10:16.082Z,29.40
2023-02-09T04:14:19.607Z,27.73
2023-02-09T04:18:19.758Z,30.43
2023-02-09T04:22:19.942Z,27.33
2023-02-09T04:26:20.727Z,30.03
2023-02-09T04:30:23.785Z,27.83
2023-02-09T04:34:24.674Z,28.23
2023-02-09T04:38:26.039Z,29.93
2023-02-09T04:42:26.342Z,29.07
2023-02-09T04:46:28.971Z,27.87
2023-02-09T04:50:28.969Z,27.40
2023-02-09T04:54:29.226Z,34.80
2023-02-09T04:58:42.294Z,27.40
2023-02-09T05:02:44.958Z,26.27
2023-02-09T05:06:45.029Z,29.07
2023-02-09T05:10:45.215Z,26.00
2023-02-09T05:14:45.406Z,25.97
2023-02-09T05:18:50.489Z,30.03
2023-02-09T05:22:50.653Z,29.30
2023-02-09T05:26:50.681Z,24.23
2023-02-09T05:30:53.903Z,29.43
2023-02-09T05:34:56.635Z,26.70
2023-02-09T05:38:56.672Z,35.57
2023-02-09T05:42:57.514Z,42.23
2023-02-09T05:46:57.585Z,40.63
2023-02-09T05:51:00.275Z,39.97
2023-02-09T05:55:00.376Z,34.80
2023-02-09T05:59:00.432Z,34.03
2023-02-09T06:03:00.535Z,33.77
2023-02-09T06:07:03.585Z,31.40
2023-02-09T06:11:06.153Z,38.80
2023-02-09T06:15:07.057Z,35.60
2023-02-09T06:19:07.626Z,39.73
2023-02-09T06:23:10.374Z,39.73
2023-02-09T06:27:10.511Z,34.13
2023-02-09T06:31:11.446Z,41.37
2023-02-09T06:35:12.167Z,32.67
2023-02-09T06:39:14.994Z,36.97
2023-02-09T06:43:15.026Z,33.20
2023-02-09T06:47:15.139Z,33.20
2023-02-09T06:51:18.909Z,39.07
2023-02-09T06:55:22.064Z,34.87
2023-02-09T06:59:22.596Z,35.70
2023-02-09T07:03:22.606Z,34.33
2023-02-09T07:07:24.393Z,39.07
2023-02-09T07:11:28.145Z,37.90
2023-02-09T07:15:28.290Z,39.07
2023-02-09T07:19:28.358Z,46.57
2023-02-09T07:23:29.377Z,43.77
2023-02-09T07:27:32.037Z,50.03
2023-02-09T07:31:32.407Z,43.07
2023-02-09T07:35:32.595Z,44.53
2023-02-09T07:39:33.310Z,41.90
2023-02-09T07:43:37.616Z,44.87
2023-02-09T07:47:40.036Z,32.80
2023-02-09T07:51:40.270Z,41.13
2023-02-09T07:55:42.598Z,44.03
2023-02-09T07:59:45.312Z,39.87
2023-02-09T08:03:48.642Z,48.47
2023-02-09T08:07:49.030Z,59.23
2023-02-09T08:11:56.213Z,60.23
2023-02-09T08:16:05.847Z,51.47
2023-02-09T08:20:11.670Z,45.37
2023-02-09T08:24:14.310Z,45.20
2023-02-09T08:28:17.748Z,42.40
2023-02-09T08:32:24.994Z,38.50
2023-02-09T08:36:27.622Z,39.63
2023-02-09T08:40:27.838Z,33.83
2023-02-09T08:44:29.258Z,30.10
2023-02-09T08:48:37.455Z,30.53
2023-02-09T08:52:38.326Z,35.17
2023-02-09T08:56:39.429Z,31.70
2023-02-09T09:00:39.732Z,30.27
2023-02-09T09:04:42.524Z,29.47
2023-02-09T09:08:43.761Z,32.53
2023-02-09T09:12:45.018Z,28.07
2023-02-09T09:16:45.373Z,26.80
2023-02-09T09:20:48.276Z,24.53
2023-02-09T09:24:48.497Z,24.67
2023-02-09T09:53:19.941Z,27.63
2023-02-09T09:57:27.796Z,34.30
2023-02-09T10:01:31.133Z,26.33
2023-02-09T10:05:40.790Z,22.83
2023-02-09T10:09:55.151Z,21.17
2023-02-09T10:13:58.198Z,22.33
2023-02-09T10:18:02.057Z,20.93
2023-02-09T10:22:03.177Z,19.90
2023-02-09T10:26:27.779Z,18.77
2023-02-09T10:30:32.558Z,18.87
2023-02-09T10:34:44.378Z,20.50
2023-02-09T10:38:49.735Z,15.90
2023-02-09T10:43:12.857Z,17.70
2023-02-09T10:47:33.622Z,19.27
2023-02-09T10:51:37.943Z,17.60
2023-02-09T10:55:42.740Z,19.00
2023-02-09T10:59:44.882Z,13.00
2023-02-09T11:04:08.784Z,16.47
2023-02-09T11:08:27.583Z,22.03
2023-02-09T11:12:29.052Z,18.80
2023-02-09T11:17:19.046Z,13.03
2023-02-09T11:21:36.618Z,11.87
2023-02-09T11:25:47.614Z,17.03
2023-02-09T11:30:02.248Z,12.33
2023-02-09T11:34:15.469Z,15.40
2023-02-09T11:38:54.824Z,14.80
2023-02-09T11:43:39.998Z,15.60
2023-02-09T11:48:33.443Z,13.10
2023-02-09T12:03:09.731Z,14.87
2023-02-09T12:07:59.549Z,12.87
2023-02-09T12:12:31.890Z,16.50
2023-02-09T12:17:36.054Z,14.20
2023-02-09T12:44:58.630Z,12.68
2023-02-09T12:49:23.061Z,13.65
2023-02-09T12:53:50.224Z,15.77
2023-02-09T12:57:55.072Z,17.58
2023-02-09T13:02:32.511Z,13.88
2023-02-09T13:06:43.521Z,12.80
2023-02-09T13:10:52.385Z,12.52
2023-02-09T13:14:54.437Z,18.88
2023-02-09T13:19:16.837Z,17.98
2023-02-09T13:23:35.299Z,14.38
2023-02-09T13:27:36.294Z,14.43
2023-02-09T13:31:42.769Z,13.10
2023-02-09T13:36:16.288Z,12.98
2023-02-09T13:40:29.501Z,15.25
2023-02-09T13:44:32.926Z,15.32
2023-02-09T13:48:37.751Z,18.83
2023-02-09T13:52:40.955Z,13.38
2023-02-09T13:56:44.248Z,14.60
2023-02-09T14:00:50.282Z,17.53
2023-02-09T14:04:57.201Z,16.53
2023-02-09T14:09:05.196Z,15.97
2023-02-09T14:13:10.200Z,17.20
2023-02-09T14:17:24.979Z,19.03
2023-02-09T14:21:34.529Z,20.80
2023-02-09T14:26:07.454Z,16.57
2023-02-09T14:30:18.314Z,20.80
2023-02-09T14:35:26.328Z,19.50
2023-02-09T14:39:28.182Z,19.60
2023-02-09T14:43:31.690Z,18.63
2023-02-09T14:47:44.377Z,17.03
2023-02-09T14:51:46.037Z,20.57
2023-02-09T14:55:46.744Z,16.30
2023-02-09T14:59:50.570Z,21.13
2023-02-09T15:03:51.260Z,19.90
2023-02-09T15:07:57.285Z,19.27
2023-02-09T15:12:10.040Z,22.10
2023-02-09T15:16:14.794Z,21.37
2023-02-09T15:20:18.689Z,22.23
2023-02-09T15:24:21.580Z,24.33
2023-02-09T15:28:32.464Z,26.23
2023-02-09T15:32:35.500Z,26.37
2023-02-09T15:36:38.033Z,22.57
2023-02-09T15:41:00.238Z,25.37
2023-02-09T15:45:13.608Z,27.17
2023-02-09T15:49:17.087Z,23.83
2023-02-09T15:53:21.545Z,28.43
2023-02-09T15:57:22.458Z,30.37
2023-02-09T16:01:23.594Z,26.70
2023-02-09T16:05:31.573Z,28.87
2023-02-09T16:09:33.428Z,28.77
2023-02-09T16:13:33.766Z,31.63
2023-02-09T16:17:34.366Z,36.20
2023-02-09T16:21:37.751Z,33.47
2023-02-09T16:25:38.303Z,30.23
2023-02-09T16:29:39.060Z,30.00
2023-02-09T16:33:41.317Z,32.87
2023-02-09T16:37:46.585Z,29.50
2023-02-09T16:41:51.022Z,30.57
2023-02-09T16:46:03.291Z,30.03
2023-02-09T16:50:22.814Z,32.87
2023-02-09T16:54:26.248Z,35.87
2023-02-09T16:58:27.048Z,32.30
2023-02-09T17:02:40.170Z,42.43
2023-02-09T17:06:41.060Z,55.77
2023-02-09T17:10:44.688Z,57.17
2023-02-09T17:14:46.272Z,63.87
2023-02-09T17:18:49.586Z,48.87
2023-02-09T17:22:53.582Z,46.20
2023-02-09T17:26:56.958Z,55.13
2023-02-09T17:31:01.984Z,54.77
2023-02-09T17:35:02.968Z,53.00
2023-02-09T17:39:04.625Z,47.70
2023-02-09T17:43:08.808Z,51.47
2023-02-09T17:47:09.796Z,57.67
2023-02-09T17:51:17.444Z,59.17
2023-02-09T17:55:25.721Z,79.20
2023-02-09T17:59:29.902Z,67.23
2023-02-09T18:03:30.359Z,65.53
2023-02-09T18:07:31.161Z,61.63
2023-02-09T18:12:01.803Z,66.53
2023-02-09T18:16:06.099Z,60.33
2023-02-09T18:20:08.900Z,62.10
2023-02-09T18:24:10.787Z,68.17
2023-02-09T18:28:11.896Z,65.07
2023-02-09T18:32:21.214Z,60.50
2023-02-09T18:36:22.151Z,63.10
2023-02-09T18:40:23.266Z,67.83
2023-02-09T18:44:29.387Z,64.83
2023-02-09T18:48:32.836Z,66.10
2023-02-09T18:52:34.669Z,59.73
2023-02-09T18:56:35.032Z,51.37
2023-02-09T19:00:36.492Z,50.40
2023-02-09T19:04:42.760Z,46.07
2023-02-09T19:08:43.477Z,74.50
2023-02-09T19:12:45.670Z,72.87
2023-02-09T19:16:46.619Z,81.07
2023-02-09T19:20:49.921Z,74.77
2023-02-09T19:24:53.310Z,66.70
2023-02-09T19:28:54.150Z,59.53
2023-02-09T19:32:55.247Z,59.10
2023-02-09T19:36:58.238Z,56.90
2023-02-09T19:41:10.187Z,46.00
2023-02-09T19:45:12.371Z,113.17
2023-02-09T19:49:13.252Z,91.10
2023-02-09T19:53:16.845Z,80.07
2023-02-09T19:57:18.351Z,79.27
2023-02-09T20:01:19.695Z,77.10
2023-02-09T20:05:20.920Z,85.20
2023-02-09T20:09:24.199Z,93.07
2023-02-09T20:13:25.319Z,84.03
2023-02-09T20:17:27.069Z,78.40
2023-02-09T20:21:28.780Z,87.20
2023-02-09T20:25:32.362Z,84.90
2023-02-09T20:29:32.653Z,74.90
2023-02-09T20:33:33.126Z,83.97
2023-02-09T20:37:34.389Z,78.90
2023-02-09T20:41:38.129Z,74.50
2023-02-09T20:45:51.006Z,83.70
2023-02-09T20:49:51.728Z,90.63
2023-02-09T20:53:51.999Z,89.87
2023-02-09T20:57:55.471Z,92.83
2023-02-09T21:01:55.950Z,87.97
2023-02-09T21:05:57.479Z,79.00
2023-02-09T21:09:58.178Z,77.47
2023-02-09T21:14:01.665Z,79.43
2023-02-09T21:18:02.150Z,70.73
2023-02-09T21:22:03.050Z,67.80
2023-02-09T21:26:05.284Z,67.43
2023-02-09T21:30:09.593Z,72.67
2023-02-09T21:34:10.837Z,75.40
2023-02-09T21:38:11.616Z,72.47
2023-02-09T21:42:28.904Z,67.80
2023-02-09T21:46:33.176Z,73.43
2023-02-09T21:50:34.527Z,66.90
2023-02-09T21:54:35.472Z,71.47
2023-02-09T21:58:36.200Z,65.60
2023-02-09T22:02:39.706Z,67.03
2023-02-09T22:06:41.749Z,58.60
2023-02-09T22:10:42.073Z,62.70
2023-02-09T22:14:42.622Z,61.27
2023-02-09T22:18:45.782Z,97.47
2023-02-09T22:22:46.700Z,80.00
2023-02-09T22:26:47.538Z,73.73
2023-02-09T22:30:48.165Z,79.03
2023-02-09T22:34:51.873Z,71.47
2023-02-09T22:38:52.659Z,83.40
2023-02-09T22:42:54.114Z,72.60
2023-02-09T22:46:54.401Z,78.07
2023-02-09T22:50:57.603Z,77.67
2023-02-09T22:54:59.202Z,80.90
2023-02-09T22:59:02.648Z,69.40
2023-02-09T23:03:03.149Z,71.03
2023-02-09T23:07:07.398Z,69.47
2023-02-09T23:11:11.011Z,61.40
2023-02-09T23:15:13.681Z,60.03
2023-02-09T23:19:18.182Z,63.23
2023-02-09T23:23:22.139Z,58.23
2023-02-09T23:27:22.790Z,62.47
2023-02-09T23:31:24.080Z,59.80
2023-02-09T23:35:24.869Z,55.07
2023-02-09T23:39:28.924Z,56.77
2023-02-09T23:43:29.330Z,60.63
2023-02-09T23:47:30.076Z,56.57
2023-02-09T23:51:33.841Z,56.30
2023-02-09T23:55:37.010Z,56.47
2023-02-09T23:59:37.683Z,59.57
